createdAt,value
2023-05-10T00:01:18.294Z,75.64
2023-05-10T00:09:18.302Z,75.87
2023-05-10T00:13:18.504Z,75.90
2023-05-10T00:17:18.528Z,76.10
2023-05-10T00:21:18.300Z,76.22
2023-05-10T00:25:18.541Z,76.35
2023-05-10T00:29:18.316Z,76.62
2023-05-10T00:37:18.412Z,76.77
2023-05-10T00:41:18.481Z,76.68
2023-05-10T00:45:19.184Z,76.60
2023-05-10T00:49:19.493Z,76.60
2023-05-10T00:53:18.890Z,76.61
2023-05-10T00:57:18.714Z,76.67
2023-05-10T01:01:19.683Z,76.64
2023-05-10T01:05:18.737Z,76.60
2023-05-10T01:09:19.125Z,76.59
2023-05-10T01:13:30.513Z,76.60
2023-05-10T01:17:19.751Z,76.60
2023-05-10T01:21:27.706Z,76.62
2023-05-10T01:25:29.015Z,76.76
2023-05-10T01:29:33.607Z,76.69
2023-05-10T01:33:23.289Z,76.62
2023-05-10T01:37:24.935Z,76.67
2023-05-10T01:41:22.632Z,76.82
2023-05-10T01:45:27.461Z,76.80
2023-05-10T01:49:23.862Z,76.74
2023-05-10T01:53:20.394Z,76.88
2023-05-10T01:57:21.866Z,76.92
2023-05-10T02:01:21.734Z,77.12
2023-05-10T02:05:20.758Z,77.17
2023-05-10T02:09:20.157Z,77.09
2023-05-10T02:13:19.536Z,77.18
2023-05-10T02:17:19.385Z,77.19
2023-05-10T02:25:21.299Z,77.02
2023-05-10T02:29:19.345Z,77.04
2023-05-10T02:33:20.567Z,76.95
2023-05-10T02:37:19.975Z,76.98
2023-05-10T02:41:21.401Z,76.87
2023-05-10T02:45:23.168Z,76.65
2023-05-10T02:49:18.739Z,76.58
2023-05-10T02:53:22.477Z,76.59
2023-05-10T02:57:25.336Z,76.52
2023-05-10T03:01:19.065Z,76.45
2023-05-10T03:05:19.272Z,76.46
2023-05-10T03:09:19.865Z,76.74
2023-05-10T03:13:27.537Z,76.81
2023-05-10T03:17:25.796Z,76.93
2023-05-10T03:21:23.074Z,77.00
2023-05-10T03:25:21.602Z,76.78
2023-05-10T03:29:20.405Z,76.75
2023-05-10T03:33:18.999Z,76.67
2023-05-10T03:37:18.943Z,76.57
2023-05-10T03:41:18.888Z,76.57
2023-05-10T03:45:18.927Z,76.56
2023-05-10T03:49:19.064Z,76.63
2023-05-10T03:53:18.958Z,76.39
2023-05-10T03:57:18.942Z,76.21
2023-05-10T04:01:18.844Z,76.05
2023-05-10T04:05:18.960Z,75.81
2023-05-10T04:09:19.225Z,75.58
2023-05-10T04:13:19.140Z,75.40
2023-05-10T04:17:18.946Z,75.37
2023-05-10T04:21:19.452Z,75.34
2023-05-10T04:25:19.098Z,75.13
2023-05-10T04:29:19.025Z,75.20
2023-05-10T04:33:18.945Z,75.18
2023-05-10T04:37:19.794Z,75.20
2023-05-10T04:41:19.114Z,75.18
2023-05-10T04:45:19.111Z,75.17
2023-05-10T04:49:19.180Z,75.28
2023-05-10T04:53:19.265Z,75.37
2023-05-10T04:57:19.152Z,75.28
2023-05-10T05:01:19.271Z,75.15
2023-05-10T05:09:19.244Z,75.10
2023-05-10T05:13:19.236Z,75.19
2023-05-10T05:17:19.266Z,75.18
2023-05-10T05:21:20.253Z,75.32
2023-05-10T05:29:19.307Z,75.48
2023-05-10T05:33:19.189Z,75.49
2023-05-10T05:37:21.325Z,75.60
2023-05-10T05:41:19.885Z,75.63
2023-05-10T05:45:19.685Z,75.74
2023-05-10T05:49:19.142Z,75.77
2023-05-10T05:53:19.227Z,76.03
2023-05-10T05:57:19.267Z,76.10
2023-05-10T06:01:19.465Z,76.40
2023-05-10T06:05:20.192Z,76.50
2023-05-10T06:09:19.367Z,76.52
2023-05-10T06:13:19.358Z,77.07
2023-05-10T06:17:19.403Z,77.11
2023-05-10T06:21:19.423Z,77.25
2023-05-10T06:25:19.688Z,77.16
2023-05-10T06:29:19.353Z,77.10
2023-05-10T06:33:19.438Z,76.86
2023-05-10T06:37:19.521Z,76.93
2023-05-10T06:41:19.571Z,76.96
2023-05-10T06:49:19.436Z,77.28
2023-05-10T06:53:19.475Z,77.20
2023-05-10T06:57:31.366Z,77.12
2023-05-10T07:01:19.552Z,77.45
2023-05-10T07:05:20.201Z,77.54
2023-05-10T07:09:19.560Z,77.60
2023-05-10T07:13:19.678Z,77.25
2023-05-10T07:17:19.850Z,77.22
2023-05-10T07:21:20.183Z,77.01
2023-05-10T07:25:19.745Z,76.82
2023-05-10T07:29:19.620Z,76.57
2023-05-10T07:33:19.655Z,76.60
2023-05-10T07:37:19.691Z,76.53
2023-05-10T07:41:20.904Z,77.04
2023-05-10T07:45:19.760Z,76.80
2023-05-10T07:49:19.925Z,76.90
2023-05-10T07:53:19.921Z,76.41
2023-05-10T07:57:19.575Z,76.72
2023-05-10T08:01:20.230Z,76.19
2023-05-10T08:05:19.811Z,76.27
2023-05-10T08:09:23.718Z,76.17
2023-05-10T08:13:19.525Z,75.65
2023-05-10T08:17:20.491Z,75.05
2023-05-10T08:21:19.755Z,74.56
2023-05-10T08:25:20.146Z,75.27
2023-05-10T08:29:19.763Z,74.58
2023-05-10T08:33:20.092Z,74.49
2023-05-10T08:37:20.125Z,73.93
2023-05-10T08:41:20.998Z,73.49
2023-05-10T08:45:22.985Z,73.49
2023-05-10T08:49:20.267Z,74.08
2023-05-10T08:53:21.034Z,74.30
2023-05-10T08:57:20.216Z,74.72
2023-05-10T09:01:21.292Z,74.42
2023-05-10T09:05:20.365Z,73.92
2023-05-10T09:09:20.375Z,73.67
2023-05-10T09:13:21.922Z,73.97
2023-05-10T09:17:21.633Z,74.11
2023-05-10T09:21:20.439Z,73.45
2023-05-10T09:25:20.233Z,73.17
2023-05-10T09:29:19.964Z,73.12
2023-05-10T09:33:20.154Z,73.03
2023-05-10T09:37:29.535Z,73.39
2023-05-10T09:41:21.453Z,72.80
2023-05-10T09:45:20.068Z,72.41
2023-05-10T09:49:20.807Z,72.48
2023-05-10T09:53:20.151Z,72.24
2023-05-10T09:57:21.274Z,70.54
2023-05-10T10:01:20.282Z,71.10
2023-05-10T10:05:20.387Z,70.97
2023-05-10T10:09:20.291Z,69.79
2023-05-10T10:13:20.001Z,69.80
2023-05-10T10:17:20.317Z,68.92
2023-05-10T10:21:20.587Z,69.45
2023-05-10T10:25:22.001Z,67.60
2023-05-10T10:29:26.122Z,67.05
2023-05-10T10:33:36.507Z,66.64
2023-05-10T10:37:20.399Z,66.92
2023-05-10T10:41:28.686Z,66.85
2023-05-10T10:45:21.278Z,66.25
2023-05-10T10:49:20.140Z,63.78
2023-05-10T10:53:20.370Z,65.05
2023-05-10T10:57:21.630Z,64.72
2023-05-10T11:01:20.593Z,64.69
2023-05-10T11:05:39.536Z,62.29
2023-05-10T11:09:24.774Z,63.25
2023-05-10T11:13:29.305Z,62.43
2023-05-10T11:17:24.584Z,60.28
2023-05-10T11:21:20.613Z,61.44
2023-05-10T11:25:26.347Z,61.55
2023-05-10T11:29:20.409Z,59.85
2023-05-10T11:33:20.379Z,60.88
2023-05-10T11:37:20.318Z,59.41
2023-05-10T11:41:22.014Z,61.44
2023-05-10T11:45:21.830Z,60.12
2023-05-10T11:49:23.025Z,59.41
2023-05-10T11:53:20.577Z,58.54
2023-05-10T11:57:26.082Z,59.66
2023-05-10T12:01:21.021Z,58.94
2023-05-10T12:05:20.729Z,57.56
2023-05-10T12:09:31.538Z,57.26
2023-05-10T12:13:21.005Z,58.22
2023-05-10T12:17:20.335Z,56.52
2023-05-10T12:21:21.087Z,56.43
2023-05-10T12:25:22.125Z,56.35
2023-05-10T12:29:20.397Z,56.90
2023-05-10T12:33:20.663Z,56.43
2023-05-10T12:37:24.398Z,54.90
2023-05-10T12:41:21.233Z,56.30
2023-05-10T12:45:20.387Z,57.87
2023-05-10T12:49:20.681Z,58.01
2023-05-10T12:53:20.529Z,58.18
2023-05-10T12:57:21.027Z,59.95
2023-05-10T13:01:20.618Z,60.79
2023-05-10T13:05:20.841Z,61.29
2023-05-10T13:09:21.208Z,64.00
2023-05-10T13:13:20.679Z,65.63
2023-05-10T13:17:20.533Z,67.62
2023-05-10T13:21:20.683Z,65.82
2023-05-10T13:25:20.476Z,66.22
2023-05-10T13:29:22.526Z,65.93
2023-05-10T13:33:20.563Z,67.12
2023-05-10T13:37:20.671Z,67.33
2023-05-10T13:41:20.826Z,66.34
2023-05-10T13:45:20.857Z,66.89
2023-05-10T13:49:21.488Z,66.88
2023-05-10T13:53:21.257Z,67.63
2023-05-10T13:57:20.654Z,69.46
2023-05-10T14:01:21.016Z,69.92
2023-05-10T14:05:25.487Z,70.71
2023-05-10T14:09:20.988Z,71.42
2023-05-10T14:13:20.545Z,71.53
2023-05-10T14:17:20.676Z,72.40
2023-05-10T14:21:20.607Z,72.94
2023-05-10T14:25:21.202Z,73.15
2023-05-10T14:29:21.255Z,74.54
2023-05-10T14:33:20.955Z,75.24
2023-05-10T14:37:20.987Z,73.17
2023-05-10T14:41:20.763Z,71.62
2023-05-10T14:45:21.249Z,71.46
2023-05-10T14:49:22.782Z,70.74
2023-05-10T14:53:20.909Z,70.56
2023-05-10T14:57:21.018Z,71.43
2023-05-10T15:01:21.375Z,71.17
2023-05-10T15:05:20.884Z,70.32
2023-05-10T15:09:20.720Z,70.49
2023-05-10T15:13:21.005Z,69.89
2023-05-10T15:17:20.769Z,69.76
2023-05-10T15:21:21.560Z,69.56
2023-05-10T15:25:20.877Z,69.82
2023-05-10T15:29:21.326Z,69.01
2023-05-10T15:33:20.818Z,69.07
2023-05-10T15:37:23.249Z,69.02
2023-05-10T15:41:20.895Z,67.23
2023-05-10T15:45:22.019Z,66.25
2023-05-10T15:49:21.017Z,66.09
2023-05-10T15:53:21.099Z,66.01
2023-05-10T15:57:20.919Z,65.95
2023-05-10T16:01:21.441Z,65.92
2023-05-10T16:05:21.164Z,63.57
2023-05-10T16:09:21.760Z,62.54
2023-05-10T16:13:20.975Z,61.53
2023-05-10T16:17:21.184Z,59.77
2023-05-10T16:21:21.288Z,60.87
2023-05-10T16:25:21.179Z,61.44
2023-05-10T16:29:21.077Z,62.26
2023-05-10T16:33:21.057Z,61.41
2023-05-10T16:37:21.030Z,61.91
2023-05-10T16:41:21.942Z,61.37
2023-05-10T16:45:21.003Z,58.24
2023-05-10T16:49:22.699Z,59.43
2023-05-10T16:53:21.235Z,58.06
2023-05-10T16:57:21.464Z,60.29
2023-05-10T17:01:22.015Z,60.09
2023-05-10T17:05:21.492Z,61.54
2023-05-10T17:09:21.063Z,61.50
2023-05-10T17:13:21.370Z,61.25
2023-05-10T17:17:22.500Z,62.21
2023-05-10T17:21:21.320Z,63.01
2023-05-10T17:25:21.142Z,64.16
2023-05-10T17:29:21.473Z,63.11
2023-05-10T17:33:21.124Z,64.43
2023-05-10T17:37:21.947Z,65.53
2023-05-10T17:49:21.571Z,65.11
2023-05-10T17:53:21.418Z,65.27
2023-05-10T17:57:23.940Z,65.01
2023-05-10T18:01:21.865Z,64.51
2023-05-10T18:05:22.405Z,64.04
2023-05-10T18:09:21.570Z,63.41
2023-05-10T18:13:22.183Z,64.37
2023-05-10T18:17:21.275Z,64.55
2023-05-10T18:21:21.835Z,64.14
2023-05-10T18:25:21.319Z,64.12
2023-05-10T18:29:22.999Z,63.62
2023-05-10T18:37:21.787Z,64.36
2023-05-10T18:41:21.401Z,64.47
2023-05-10T18:45:21.401Z,62.28
2023-05-10T18:49:21.858Z,63.19
2023-05-10T18:53:22.276Z,62.97
2023-05-10T18:57:21.468Z,62.12
2023-05-10T19:01:21.679Z,62.05
2023-05-10T19:05:26.141Z,62.37
2023-05-10T19:09:21.547Z,62.10
2023-05-10T19:13:21.492Z,63.70
2023-05-10T19:17:24.398Z,64.31
2023-05-10T19:21:21.963Z,63.43
2023-05-10T19:25:23.245Z,63.93
2023-05-10T19:29:22.090Z,64.00
2023-05-10T19:33:22.132Z,64.49
2023-05-10T19:37:21.616Z,64.96
2023-05-10T19:41:21.790Z,66.58
2023-05-10T19:45:21.736Z,66.85
2023-05-10T19:49:22.206Z,66.64
2023-05-10T19:53:21.514Z,66.24
2023-05-10T19:57:21.876Z,66.45
2023-05-10T20:01:21.619Z,66.68
2023-05-10T20:05:22.082Z,67.35
2023-05-10T20:09:21.617Z,67.96
2023-05-10T20:13:21.621Z,68.00
2023-05-10T20:17:21.617Z,67.42
2023-05-10T20:21:22.850Z,68.12
2023-05-10T20:29:21.858Z,67.49
2023-05-10T20:33:22.036Z,67.38
2023-05-10T20:37:22.234Z,67.30
2023-05-10T20:41:21.809Z,67.26
2023-05-10T20:45:21.947Z,67.29
2023-05-10T20:49:21.723Z,67.20
2023-05-10T20:53:21.975Z,67.87
2023-05-10T20:57:21.781Z,67.40
2023-05-10T21:01:22.125Z,67.63
2023-05-10T21:05:22.574Z,68.06
2023-05-10T21:09:21.874Z,68.36
2023-05-10T21:13:21.770Z,68.46
2023-05-10T21:17:21.918Z,68.09
2023-05-10T21:25:22.160Z,68.48
2023-05-10T21:29:21.771Z,68.55
2023-05-10T21:33:23.967Z,69.18
2023-05-10T21:37:22.236Z,69.50
2023-05-10T21:45:22.347Z,68.88
2023-05-10T21:53:22.482Z,68.84
2023-05-10T21:57:22.178Z,69.24
2023-05-10T22:01:22.042Z,68.99
2023-05-10T22:05:22.243Z,68.85
2023-05-10T22:09:24.362Z,68.92
2023-05-10T22:17:22.085Z,69.18
2023-05-10T22:21:22.377Z,69.29
2023-05-10T22:25:22.103Z,69.41
2023-05-10T22:29:22.379Z,69.48
2023-05-10T22:33:22.225Z,69.62
2023-05-10T22:37:22.088Z,69.64
2023-05-10T22:41:22.155Z,69.56
2023-05-10T22:45:22.171Z,69.78
2023-05-10T22:49:22.536Z,69.74
2023-05-10T22:53:22.192Z,69.82
2023-05-10T22:57:22.316Z,69.76
2023-05-10T23:01:22.071Z,69.92
2023-05-10T23:05:22.478Z,70.06
2023-05-10T23:09:22.059Z,70.01
2023-05-10T23:13:23.712Z,70.11
2023-05-10T23:17:22.117Z,70.19
2023-05-10T23:21:22.439Z,70.31
2023-05-10T23:25:22.231Z,70.24
2023-05-10T23:29:22.929Z,70.26
2023-05-10T23:33:23.101Z,70.09
2023-05-10T23:37:22.176Z,70.28
2023-05-10T23:41:23.683Z,70.54
2023-05-10T23:49:22.324Z,70.25
2023-05-10T23:53:22.238Z,70.45
